Time;durP1;ratioP1;P1;durP2;ratioP2;P2;SDS_P1;SDS_P2;PMS_P1;PMS_P2;Temp;Humidity;BMP_temperature;BMP_pressure;BME280_temperature;BME280_humidity;BME280_pressure;Samples;Min_cycle;Max_cycle;Signal;HPM_P1;HPM_P2
2024/01/08 00:00:25;;;;;;;12.90;7.20;;;5.90;98.00;;;;;;5127576;28;20563;-50
2024/01/08 00:02:50;;;;;;;11.10;7.05;;;5.90;98.10;;;;;;5127336;28;20027;-50
2024/01/08 00:05:16;;;;;;;15.77;7.78;;;5.90;98.00;;;;;;5127656;28;20472;-49
2024/01/08 00:07:41;;;;;;;15.30;7.93;;;5.90;97.90;;;;;;5127269;28;20039;-49
2024/01/08 00:10:07;;;;;;;20.38;7.15;;;5.90;98.00;;;;;;5127287;28;20024;-49
2024/01/08 00:12:33;;;;;;;17.48;7.60;;;5.90;98.00;;;;;;5127235;28;20042;-50
2024/01/08 00:14:58;;;;;;;13.05;7.65;;;5.90;98.00;;;;;;5127356;28;20051;-50
2024/01/08 00:17:24;;;;;;;13.07;7.45;;;5.90;98.00;;;;;;5127215;28;20034;-49
2024/01/08 00:19:50;;;;;;;11.18;6.50;;;5.90;97.90;;;;;;5126364;28;20028;-50
2024/01/08 00:22:15;;;;;;;14.15;7.18;;;5.90;97.90;;;;;;5127108;28;20043;-50
2024/01/08 00:24:41;;;;;;;11.82;6.80;;;5.90;97.80;;;;;;5127141;28;20032;-49
2024/01/08 00:27:06;;;;;;;14.82;7.32;;;5.90;97.90;;;;;;5126985;28;20055;-50
2024/01/08 00:29:32;;;;;;;11.75;6.82;;;5.90;97.90;;;;;;5127001;28;20043;-50
2024/01/08 00:31:57;;;;;;;13.48;7.20;;;5.80;97.60;;;;;;5126926;28;20034;-50
2024/01/08 00:34:27;;;;;;;9.75;7.68;;;5.80;97.80;;;;;;5126805;28;20038;-50
2024/01/08 00:36:52;;;;;;;8.75;6.43;;;5.80;97.80;;;;;;5126923;28;20391;-49
2024/01/08 00:39:18;;;;;;;13.23;7.05;;;5.80;97.80;;;;;;5126874;28;20058;-49
2024/01/08 00:41:44;;;;;;;11.77;7.00;;;5.80;97.70;;;;;;5126697;28;20098;-50
2024/01/08 00:44:10;;;;;;;9.77;7.15;;;5.80;97.60;;;;;;5126822;28;20051;-50
2024/01/08 00:46:36;;;;;;;12.93;6.82;;;5.80;97.60;;;;;;5127053;28;20045;-50
2024/01/08 00:49:01;;;;;;;8.85;6.97;;;5.80;97.70;;;;;;5127526;28;20519;-49
2024/01/08 00:51:27;;;;;;;11.43;6.90;;;5.70;97.60;;;;;;5126698;28;20027;-50
2024/01/08 00:53:52;;;;;;;12.30;7.18;;;5.80;97.50;;;;;;5126597;28;20038;-50
2024/01/08 00:56:18;;;;;;;12.50;6.72;;;5.70;97.50;;;;;;5126530;28;20046;-50
2024/01/08 00:58:44;;;;;;;11.70;6.63;;;5.70;97.50;;;;;;5126731;28;20028;-50
2024/01/08 01:01:11;;;;;;;11.63;6.78;;;5.70;97.50;;;;;;5126600;28;20467;-49
2024/01/08 01:03:36;;;;;;;10.27;6.78;;;5.70;97.40;;;;;;5126599;28;20391;-50
2024/01/08 01:06:02;;;;;;;9.18;6.60;;;5.70;97.50;;;;;;5126301;28;20081;-50
2024/01/08 01:08:28;;;;;;;10.35;6.57;;;5.70;97.50;;;;;;5126412;28;20031;-49
2024/01/08 01:10:53;;;;;;;8.75;6.65;;;5.70;97.50;;;;;;5126566;28;20022;-50
2024/01/08 01:13:19;;;;;;;8.80;6.13;;;5.70;97.50;;;;;;5126270;28;20043;-49
2024/01/08 01:15:44;;;;;;;9.20;6.65;;;5.70;97.50;;;;;;5126432;28;20094;-49
2024/01/08 01:18:10;;;;;;;12.10;6.13;;;5.60;97.40;;;;;;5126495;28;20032;-49
2024/01/08 01:20:35;;;;;;;13.20;7.28;;;5.60;97.40;;;;;;5126639;28;20079;-50
2024/01/08 01:23:01;;;;;;;7.82;6.45;;;5.60;97.40;;;;;;5108036;28;20067;-50
2024/01/08 01:25:27;;;;;;;11.02;6.90;;;5.60;97.30;;;;;;5126514;28;20031;-49
2024/01/08 01:27:52;;;;;;;10.40;6.65;;;5.60;97.30;;;;;;5126328;28;20038;-50
2024/01/08 01:30:18;;;;;;;11.68;7.47;;;5.60;97.30;;;;;;5126424;28;20106;-50
2024/01/08 01:32:43;;;;;;;7.72;5.75;;;5.60;97.30;;;;;;5128459;28;20024;-50
2024/01/08 01:35:09;;;;;;;8.82;6.25;;;5.60;97.20;;;;;;5132271;28;20495;-50
2024/01/08 01:37:34;;;;;;;8.65;6.18;;;5.60;97.10;;;;;;5130069;28;20020;-50
2024/01/08 01:40:00;;;;;;;7.95;6.80;;;5.60;97.10;;;;;;5130121;28;20042;-49
2024/01/08 01:42:26;;;;;;;8.13;5.90;;;5.50;97.10;;;;;;5129726;28;20555;-50
2024/01/08 01:44:51;;;;;;;9.00;5.95;;;5.50;97.10;;;;;;5130171;28;20536;-49
2024/01/08 01:47:17;;;;;;;10.13;6.38;;;5.50;97.00;;;;;;5130154;28;20047;-49
2024/01/08 01:49:42;;;;;;;8.30;6.30;;;5.50;97.00;;;;;;5111604;28;20080;-49
2024/01/08 01:52:08;;;;;;;10.23;6.93;;;5.50;97.00;;;;;;5111673;28;20031;-50
2024/01/08 01:54:33;;;;;;;10.95;6.55;;;5.50;96.90;;;;;;5130013;28;20077;-50
2024/01/08 01:57:00;;;;;;;9.85;6.30;;;5.50;96.90;;;;;;5111514;28;20387;-50
2024/01/08 01:59:26;;;;;;;9.82;6.00;;;5.50;96.80;;;;;;5129765;28;20048;-49
2024/01/08 02:01:52;;;;;;;7.22;5.78;;;5.50;96.90;;;;;;5129756;28;20046;-49
2024/01/08 02:04:18;;;;;;;11.00;6.85;;;5.50;96.90;;;;;;5129792;28;20028;-50
2024/01/08 02:06:44;;;;;;;8.55;6.07;;;5.50;96.90;;;;;;5111274;28;20027;-50
2024/01/08 02:09:10;;;;;;;8.30;6.47;;;5.40;96.70;;;;;;5129577;28;20032;-49
2024/01/08 02:11:35;;;;;;;9.00;6.20;;;5.40;96.70;;;;;;5111265;28;20043;-50
2024/01/08 02:14:01;;;;;;;8.50;6.03;;;5.40;96.70;;;;;;5111092;28;20027;-50
2024/01/08 02:16:27;;;;;;;7.68;5.75;;;5.40;96.70;;;;;;5129406;28;20102;-50
2024/01/08 02:18:52;;;;;;;7.68;6.00;;;5.40;96.60;;;;;;5129397;28;20038;-50
2024/01/08 02:21:18;;;;;;;7.35;6.28;;;5.40;96.60;;;;;;5129478;28;20471;-50
2024/01/08 02:23:43;;;;;;;8.88;6.65;;;5.40;96.70;;;;;;5129317;28;20027;-50
2024/01/08 02:26:09;;;;;;;7.15;6.15;;;5.40;96.60;;;;;;5128878;28;20032;-50
2024/01/08 02:28:35;;;;;;;8.60;5.82;;;5.40;96.60;;;;;;5110674;28;20091;-50
2024/01/08 02:31:00;;;;;;;9.43;6.13;;;5.40;96.50;;;;;;5128911;28;20031;-50
2024/01/08 02:33:26;;;;;;;7.82;5.80;;;5.30;96.50;;;;;;5128954;28;20024;-50
2024/01/08 02:35:53;;;;;;;7.38;5.20;;;5.40;96.60;;;;;;5128731;28;20035;-50
2024/01/08 02:38:18;;;;;;;8.13;5.63;;;5.30;96.50;;;;;;5129125;28;20035;-50
2024/01/08 02:40:44;;;;;;;9.75;6.40;;;5.30;96.40;;;;;;5128966;28;20044;-49
2024/01/08 02:43:09;;;;;;;8.63;6.25;;;5.30;96.60;;;;;;5128725;28;20081;-49
2024/01/08 02:45:35;;;;;;;8.45;6.10;;;5.30;96.50;;;;;;5128797;28;20032;-50
2024/01/08 02:48:00;;;;;;;5.82;4.95;;;5.20;96.40;;;;;;5128797;28;20032;-50
2024/01/08 02:50:26;;;;;;;6.88;5.68;;;5.20;96.40;;;;;;5128862;28;20083;-50
2024/01/08 02:52:51;;;;;;;6.57;5.45;;;5.20;96.30;;;;;;5128659;28;20032;-49
2024/01/08 02:55:17;;;;;;;6.43;5.38;;;5.20;96.20;;;;;;5128632;28;20020;-49
2024/01/08 02:57:43;;;;;;;8.60;5.68;;;5.20;96.20;;;;;;5128654;28;20020;-50
2024/01/08 03:00:09;;;;;;;6.43;5.22;;;5.20;96.10;;;;;;5128541;28;20030;-50
2024/01/08 03:02:35;;;;;;;8.32;6.07;;;5.20;96.10;;;;;;5128439;28;20028;-50
2024/01/08 03:05:01;;;;;;;7.75;5.45;;;5.20;96.00;;;;;;5128427;28;20484;-50
2024/01/08 03:07:27;;;;;;;6.63;5.85;;;5.10;96.00;;;;;;5128150;28;20049;-49
2024/01/08 03:09:56;;;;;;;7.40;5.68;;;5.10;96.10;;;;;;5109751;28;20061;-50
2024/01/08 03:12:22;;;;;;;10.45;6.03;;;5.10;96.00;;;;;;5128352;28;20058;-50
2024/01/08 03:14:48;;;;;;;6.20;5.60;;;5.10;95.90;;;;;;5128332;28;20028;-50
2024/01/08 03:17:13;;;;;;;6.35;5.72;;;5.10;95.90;;;;;;5128298;28;20016;-49
2024/01/08 03:19:39;;;;;;;7.10;5.45;;;5.10;95.80;;;;;;5128063;28;20243;-50
2024/01/08 03:22:04;;;;;;;5.93;5.32;;;5.10;95.80;;;;;;5128094;28;20083;-50
2024/01/08 03:24:30;;;;;;;6.38;5.63;;;5.10;95.80;;;;;;5128053;28;20372;-49
2024/01/08 03:26:56;;;;;;;6.30;5.40;;;5.10;95.60;;;;;;5128066;28;20300;-49
2024/01/08 03:29:23;;;;;;;6.65;5.53;;;5.00;95.50;;;;;;5109620;28;20300;-49
2024/01/08 03:31:49;;;;;;;6.00;5.40;;;5.00;95.50;;;;;;5127997;28;20035;-50
2024/01/08 03:34:14;;;;;;;8.80;5.72;;;5.00;95.60;;;;;;5127851;28;20109;-50
2024/01/08 03:36:47;;;;;;;7.97;5.60;;;5.00;95.70;;;;;;5128010;28;20079;-50
2024/01/08 03:39:13;;;;;;;7.28;5.30;;;5.00;95.80;;;;;;5127880;28;20047;-50
2024/01/08 03:41:42;;;;;;;6.70;5.25;;;4.90;95.80;;;;;;5127851;28;20024;-50
2024/01/08 03:44:08;;;;;;;6.35;5.75;;;5.00;95.70;;;;;;5127932;28;20027;-50
2024/01/08 03:46:34;;;;;;;6.18;5.22;;;5.00;95.80;;;;;;5128059;28;20027;-50
2024/01/08 03:49:00;;;;;;;7.40;5.53;;;5.00;95.80;;;;;;5127800;28;20031;-49
2024/01/08 03:51:26;;;;;;;8.45;5.68;;;4.90;95.80;;;;;;5127665;28;20039;-50
2024/01/08 03:53:53;;;;;;;6.82;5.43;;;4.90;95.70;;;;;;5109380;28;20035;-49
2024/01/08 03:56:18;;;;;;;6.30;5.47;;;5.00;95.80;;;;;;5108617;28;20523;-50
2024/01/08 03:58:44;;;;;;;6.10;5.50;;;4.90;95.70;;;;;;5127629;28;20036;-50
2024/01/08 04:01:11;;;;;;;6.13;5.18;;;4.90;95.70;;;;;;5127416;28;20483;-49
2024/01/08 04:03:37;;;;;;;9.18;5.82;;;4.90;95.70;;;;;;5127431;28;20039;-50
2024/01/08 04:06:03;;;;;;;7.25;5.57;;;4.90;95.70;;;;;;5109038;28;20035;-49
2024/01/08 04:08:31;;;;;;;7.20;6.10;;;4.90;95.70;;;;;;5127502;28;20053;-50
2024/01/08 04:10:56;;;;;;;7.70;5.20;;;4.90;95.60;;;;;;5127396;28;20015;-49
2024/01/08 04:13:22;;;;;;;5.82;5.22;;;4.90;95.60;;;;;;5127243;28;20042;-50
2024/01/08 04:15:47;;;;;;;7.63;5.90;;;4.90;95.60;;;;;;5127131;28;20045;-50
2024/01/08 04:18:13;;;;;;;5.20;4.70;;;4.80;95.50;;;;;;5126931;28;20035;-48
2024/01/08 04:20:39;;;;;;;6.32;5.22;;;4.80;95.50;;;;;;5127326;28;20076;-49
2024/01/08 04:23:05;;;;;;;6.70;5.65;;;4.80;95.50;;;;;;5126984;28;20031;-50
2024/01/08 04:25:30;;;;;;;7.32;5.18;;;4.80;95.80;;;;;;5127190;28;20087;-50
2024/01/08 04:27:56;;;;;;;6.13;5.50;;;4.80;95.50;;;;;;5126877;28;20433;-49
2024/01/08 04:30:22;;;;;;;6.50;5.60;;;4.80;95.50;;;;;;5126828;28;20027;-50
2024/01/08 04:32:47;;;;;;;5.50;4.90;;;4.80;95.50;;;;;;5126722;28;20036;-50
2024/01/08 04:35:13;;;;;;;5.97;5.40;;;4.70;95.50;;;;;;5108622;28;20099;-49
2024/01/08 04:37:40;;;;;;;6.38;5.78;;;4.70;95.40;;;;;;5126869;28;20076;-50
2024/01/08 04:40:07;;;;;;;6.05;5.45;;;4.70;95.40;;;;;;5126884;28;20088;-50
2024/01/08 04:42:32;;;;;;;6.78;5.20;;;4.70;95.30;;;;;;5126794;28;20028;-49
2024/01/08 04:44:58;;;;;;;6.65;5.43;;;4.80;95.30;;;;;;5126745;28;20055;-50
2024/01/08 04:47:24;;;;;;;6.22;5.32;;;4.70;95.30;;;;;;5126817;28;20031;-50
2024/01/08 04:49:49;;;;;;;5.93;5.35;;;4.70;95.20;;;;;;5127337;28;20054;-49
2024/01/08 04:52:15;;;;;;;6.35;5.25;;;4.70;95.20;;;;;;5127017;28;20023;-50
2024/01/08 04:54:42;;;;;;;6.18;5.57;;;4.70;95.20;;;;;;5126846;28;20035;-50
2024/01/08 04:57:08;;;;;;;6.57;5.88;;;4.70;95.20;;;;;;5108456;28;20024;-50
2024/01/08 04:59:42;;;;;;;5.68;5.18;;;4.70;95.20;;;;;;5126601;28;20039;-49
2024/01/08 05:02:08;;;;;;;6.57;4.68;;;4.60;95.10;;;;;;5109431;28;20027;-50
2024/01/08 05:04:34;;;;;;;6.18;5.25;;;4.60;95.20;;;;;;5127385;28;20032;-50
2024/01/08 05:07:00;;;;;;;8.18;5.22;;;4.60;95.10;;;;;;5129486;28;20031;-50
2024/01/08 05:09:26;;;;;;;6.55;5.00;;;4.60;94.90;;;;;;5130682;28;20034;-50
2024/01/08 05:11:51;;;;;;;7.50;5.28;;;4.60;94.70;;;;;;5130574;28;20024;-50
2024/01/08 05:14:17;;;;;;;5.78;5.05;;;4.60;94.50;;;;;;5130699;28;20024;-50
2024/01/08 05:16:42;;;;;;;8.38;5.22;;;4.50;94.60;;;;;;5130457;28;20031;-49
2024/01/08 05:19:08;;;;;;;5.35;4.70;;;4.50;94.50;;;;;;5130592;28;20035;-50
2024/01/08 05:21:33;;;;;;;5.38;4.88;;;4.50;94.40;;;;;;5112259;28;20023;-50
2024/01/08 05:23:59;;;;;;;8.30;5.22;;;4.50;94.40;;;;;;5130481;28;20035;-50
2024/01/08 05:26:25;;;;;;;6.82;5.10;;;4.50;94.20;;;;;;5130235;28;20023;-50
2024/01/08 05:28:50;;;;;;;10.15;5.43;;;4.50;94.20;;;;;;5130036;28;20046;-50
2024/01/08 05:31:16;;;;;;;12.52;4.95;;;4.60;94.10;;;;;;5130159;28;20034;-50
2024/01/08 05:33:42;;;;;;;7.07;4.88;;;4.50;93.90;;;;;;5130010;28;20040;-50
2024/01/08 05:36:08;;;;;;;10.18;5.22;;;4.50;93.80;;;;;;5130217;28;20028;-49
2024/01/08 05:38:33;;;;;;;6.38;5.15;;;4.50;93.90;;;;;;5111986;28;20475;-49
2024/01/08 05:40:59;;;;;;;6.97;5.13;;;4.40;94.00;;;;;;5129959;28;20118;-50
2024/01/08 05:43:24;;;;;;;16.67;5.43;;;4.40;94.10;;;;;;5129959;28;20049;-50
2024/01/08 05:45:51;;;;;;;12.80;5.45;;;4.50;94.20;;;;;;5130102;28;20027;-50
2024/01/08 05:48:17;;;;;;;15.40;5.53;;;4.40;94.10;;;;;;5129831;28;20115;-50
2024/01/08 05:50:42;;;;;;;28.40;6.65;;;4.40;94.00;;;;;;5130062;28;20034;-49
2024/01/08 05:53:08;;;;;;;17.52;6.15;;;4.40;94.10;;;;;;5130817;28;20028;-49
2024/01/08 05:55:33;;;;;;;34.25;7.18;;;4.40;94.10;;;;;;5129914;28;20020;-50
2024/01/08 05:57:59;;;;;;;18.02;6.47;;;4.50;94.10;;;;;;5129755;28;20028;-49
2024/01/08 06:00:25;;;;;;;27.23;7.28;;;4.40;94.00;;;;;;5129571;28;20092;-50
2024/01/08 06:02:50;;;;;;;26.10;6.32;;;4.40;94.10;;;;;;5129364;28;20468;-50
2024/01/08 06:05:16;;;;;;;26.23;6.72;;;4.40;94.10;;;;;;5129475;28;20047;-50
2024/01/08 06:07:42;;;;;;;25.27;6.25;;;4.40;94.00;;;;;;5129464;28;20107;-50
2024/01/08 06:10:08;;;;;;;27.23;7.00;;;4.40;93.90;;;;;;5129261;28;20074;-49
2024/01/08 06:12:34;;;;;;;29.58;6.53;;;4.40;93.90;;;;;;5129241;28;20037;-50
2024/01/08 06:14:59;;;;;;;22.70;7.18;;;4.40;93.90;;;;;;5129238;28;20032;-49
2024/01/08 06:17:25;;;;;;;38.03;7.60;;;4.40;94.00;;;;;;5128670;28;20028;-50
2024/01/08 06:19:50;;;;;;;35.13;7.95;;;4.40;94.10;;;;;;5128961;28;20019;-50
2024/01/08 06:22:16;;;;;;;44.65;9.85;;;4.40;94.10;;;;;;5129181;28;20053;-49
2024/01/08 06:24:41;;;;;;;46.08;8.60;;;4.40;94.20;;;;;;5129398;28;20039;-50
2024/01/08 06:27:07;;;;;;;21.45;6.78;;;4.40;94.20;;;;;;5129138;28;20031;-50
2024/01/08 06:29:33;;;;;;;24.77;7.35;;;4.40;94.10;;;;;;5128937;28;20039;-50
2024/01/08 06:31:59;;;;;;;38.92;8.45;;;4.40;94.20;;;;;;5129184;28;20157;-49
2024/01/08 06:34:25;;;;;;;64.47;9.95;;;4.40;94.30;;;;;;5129032;28;20048;-50
2024/01/08 06:36:50;;;;;;;61.75;10.23;;;4.40;94.40;;;;;;5129079;28;20030;-50
2024/01/08 06:39:16;;;;;;;41.97;8.18;;;4.40;94.40;;;;;;5110448;28;20035;-50
2024/01/08 06:41:41;;;;;;;35.53;8.35;;;4.40;94.40;;;;;;5114771;28;20032;-50
2024/01/08 06:44:07;;;;;;;32.72;7.40;;;4.40;94.40;;;;;;5108637;28;20529;-49
2024/01/08 06:46:32;;;;;;;33.53;8.48;;;4.30;94.30;;;;;;5108427;28;20035;-50
2024/01/08 06:48:58;;;;;;;29.13;7.72;;;4.30;94.30;;;;;;5108169;28;20032;-49
2024/01/08 06:51:24;;;;;;;34.70;8.93;;;4.30;94.30;;;;;;5108443;28;20024;-50
2024/01/08 06:53:49;;;;;;;33.35;7.72;;;4.30;94.40;;;;;;5108357;28;20474;-50
2024/01/08 06:56:15;;;;;;;53.55;8.20;;;4.30;94.30;;;;;;5106896;28;20048;-50
2024/01/08 06:58:40;;;;;;;30.67;8.75;;;4.30;94.30;;;;;;5107993;28;20032;-49
2024/01/08 07:01:06;;;;;;;29.70;7.75;;;4.30;94.30;;;;;;5106159;28;20024;-50
2024/01/08 07:03:32;;;;;;;27.35;7.78;;;4.30;94.30;;;;;;5105838;28;20032;-49
2024/01/08 07:05:57;;;;;;;27.25;8.80;;;4.30;94.30;;;;;;5105896;28;20054;-50
2024/01/08 07:08:23;;;;;;;26.08;6.90;;;4.30;94.20;;;;;;5105806;28;20028;-49
2024/01/08 07:10:49;;;;;;;41.45;7.95;;;4.30;94.20;;;;;;5103682;28;20047;-50
2024/01/08 07:13:15;;;;;;;37.40;7.25;;;4.30;94.20;;;;;;5095930;28;20024;-50
2024/01/08 07:15:43;;;;;;;24.63;7.07;;;4.20;94.10;;;;;;5093952;28;20488;-50
2024/01/08 07:18:09;;;;;;;33.95;7.65;;;4.30;94.10;;;;;;5083862;28;20031;-49
2024/01/08 07:20:38;;;;;;;28.00;7.55;;;4.20;94.00;;;;;;5084982;28;20084;-49
2024/01/08 07:23:05;;;;;;;28.83;7.57;;;4.20;94.00;;;;;;5085155;28;20017;-49
2024/01/08 07:25:31;;;;;;;22.75;6.78;;;4.20;94.00;;;;;;5083631;28;20044;-50
2024/01/08 07:27:57;;;;;;;22.13;7.32;;;4.20;94.00;;;;;;5100468;28;20031;-50
2024/01/08 07:30:22;;;;;;;16.48;5.85;;;4.20;94.00;;;;;;5103979;28;20081;-50
2024/01/08 07:32:49;;;;;;;21.77;6.45;;;4.20;93.90;;;;;;5104249;28;20052;-49
2024/01/08 07:35:14;;;;;;;15.75;6.22;;;4.20;93.80;;;;;;5106112;28;20028;-50
2024/01/08 07:37:40;;;;;;;23.85;6.88;;;4.10;93.80;;;;;;5116605;28;20072;-49
2024/01/08 07:40:06;;;;;;;24.65;6.90;;;4.10;93.80;;;;;;5101112;28;20032;-49
2024/01/08 07:42:32;;;;;;;14.48;5.75;;;4.10;93.80;;;;;;5089400;28;20057;-49
2024/01/08 07:44:58;;;;;;;18.60;6.22;;;4.10;93.70;;;;;;5093902;28;20059;-49
2024/01/08 07:47:23;;;;;;;16.63;6.97;;;4.10;93.70;;;;;;5086902;28;20078;-49
2024/01/08 07:49:49;;;;;;;26.13;6.38;;;4.10;93.60;;;;;;5092910;28;20032;-50
2024/01/08 07:52:14;;;;;;;24.83;7.13;;;4.10;93.60;;;;;;5107183;28;20031;-50
2024/01/08 07:54:40;;;;;;;12.38;5.88;;;4.10;93.60;;;;;;5098857;28;20028;-50
2024/01/08 07:57:06;;;;;;;11.98;6.03;;;4.10;93.60;;;;;;5121886;28;20023;-49
2024/01/08 07:59:31;;;;;;;17.70;5.75;;;4.10;93.50;;;;;;5088719;28;20039;-50
2024/01/08 08:01:57;;;;;;;18.40;6.22;;;4.00;93.50;;;;;;5106008;28;20052;-49
2024/01/08 08:04:22;;;;;;;15.55;5.43;;;4.10;93.40;;;;;;5105009;28;20032;-49
2024/01/08 08:06:48;;;;;;;13.57;5.85;;;4.00;93.40;;;;;;5112530;28;20070;-49
2024/01/08 08:09:13;;;;;;;11.65;5.82;;;4.10;93.30;;;;;;5122417;28;20043;-49
2024/01/08 08:11:39;;;;;;;12.52;6.00;;;4.10;93.30;;;;;;5111020;28;20027;-49
2024/01/08 08:14:05;;;;;;;11.15;5.60;;;4.00;93.30;;;;;;5116693;28;20109;-49
2024/01/08 08:16:31;;;;;;;10.63;4.93;;;4.00;93.10;;;;;;5115266;28;20023;-49
2024/01/08 08:18:56;;;;;;;11.68;5.97;;;4.00;93.20;;;;;;5123673;28;20046;-50
2024/01/08 08:21:22;;;;;;;11.93;5.40;;;3.90;93.00;;;;;;5106176;28;20031;-49
2024/01/08 08:23:48;;;;;;;13.38;5.93;;;3.90;93.00;;;;;;5106933;28;20116;-49
2024/01/08 08:26:14;;;;;;;12.68;5.40;;;3.90;93.00;;;;;;5115502;28;20479;-50
2024/01/08 08:28:40;;;;;;;13.63;5.85;;;3.90;93.00;;;;;;5113330;28;20042;-49
2024/01/08 08:31:05;;;;;;;9.82;5.05;;;3.90;92.90;;;;;;5108765;28;20081;-49
2024/01/08 08:33:31;;;;;;;14.38;5.63;;;3.90;92.90;;;;;;5121881;28;20028;-49
2024/01/08 08:35:56;;;;;;;10.68;5.47;;;3.90;92.90;;;;;;5109965;28;20039;-49
2024/01/08 08:38:22;;;;;;;11.00;4.72;;;3.90;92.80;;;;;;5113882;28;20050;-50
2024/01/08 08:40:48;;;;;;;15.27;5.50;;;3.90;92.80;;;;;;5113142;28;20038;-50
2024/01/08 08:43:13;;;;;;;9.23;4.70;;;3.90;92.70;;;;;;5124339;28;20119;-50
2024/01/08 08:45:39;;;;;;;17.08;5.55;;;3.90;92.70;;;;;;5111803;28;20042;-50
2024/01/08 08:48:05;;;;;;;13.88;5.05;;;3.90;92.70;;;;;;5118203;28;20606;-50
2024/01/08 08:50:30;;;;;;;10.38;4.97;;;3.90;92.70;;;;;;5113101;28;20020;-49
2024/01/08 08:52:56;;;;;;;17.00;5.70;;;3.90;92.70;;;;;;5104178;28;20028;-50
2024/01/08 08:55:21;;;;;;;15.95;5.50;;;3.90;92.70;;;;;;5104385;28;20040;-50
2024/01/08 08:57:47;;;;;;;18.10;5.88;;;3.90;92.80;;;;;;5102325;28;20040;-50
2024/01/08 09:00:13;;;;;;;13.98;5.60;;;3.90;92.80;;;;;;5101876;28;20024;-50
2024/01/08 09:02:38;;;;;;;9.77;4.63;;;3.90;92.70;;;;;;5104626;28;20101;-50
2024/01/08 09:05:05;;;;;;;9.95;5.10;;;3.90;92.60;;;;;;5104093;28;20027;-50
2024/01/08 09:07:31;;;;;;;14.85;5.60;;;3.90;92.60;;;;;;5113431;28;20023;-50
2024/01/08 09:09:56;;;;;;;17.52;5.30;;;3.90;92.60;;;;;;5125200;28;20020;-50
2024/01/08 09:12:22;;;;;;;8.02;5.28;;;3.90;92.60;;;;;;5124441;28;20422;-50
2024/01/08 09:14:47;;;;;;;9.55;5.07;;;3.90;92.60;;;;;;5109320;28;20035;-50
2024/01/08 09:17:13;;;;;;;13.38;5.95;;;3.90;92.60;;;;;;5106397;28;20501;-50
2024/01/08 09:19:38;;;;;;;8.93;5.10;;;3.90;92.70;;;;;;5106181;28;20030;-50
2024/01/08 09:22:04;;;;;;;14.52;5.75;;;3.90;92.60;;;;;;5107214;28;20085;-50
2024/01/08 09:24:30;;;;;;;12.82;5.90;;;3.90;92.60;;;;;;5122647;28;20031;-50
2024/01/08 09:26:55;;;;;;;8.45;5.20;;;3.90;92.60;;;;;;5104413;28;20152;-50
2024/01/08 09:29:21;;;;;;;13.77;5.85;;;3.80;92.50;;;;;;5102951;28;20032;-50
2024/01/08 09:31:47;;;;;;;24.17;5.75;;;3.90;92.60;;;;;;5102989;28;20039;-50
2024/01/08 09:34:12;;;;;;;8.93;5.13;;;3.80;92.60;;;;;;5102604;28;20034;-50
2024/01/08 09:36:38;;;;;;;13.73;5.88;;;3.90;92.40;;;;;;5103673;28;20111;-50
2024/01/08 09:39:04;;;;;;;13.13;5.85;;;3.80;92.40;;;;;;5103164;28;20044;-50
2024/01/08 09:41:29;;;;;;;16.88;5.60;;;3.80;92.40;;;;;;5104799;28;20024;-50
2024/01/08 09:43:59;;;;;;;19.15;5.82;;;3.80;92.30;;;;;;5105736;28;20371;-50
2024/01/08 09:46:26;;;;;;;13.88;5.43;;;3.80;92.30;;;;;;5088417;28;20084;-50
2024/01/08 09:48:53;;;;;;;19.15;6.40;;;3.80;92.30;;;;;;5105060;28;20029;-50
2024/01/08 09:51:19;;;;;;;27.02;5.65;;;3.80;92.30;;;;;;5086458;28;20034;-50
2024/01/08 09:53:45;;;;;;;15.07;4.90;;;3.80;92.30;;;;;;5072298;28;20115;-50
2024/01/08 09:56:11;;;;;;;18.48;5.45;;;3.70;92.40;;;;;;5109301;28;20024;-50
2024/01/08 09:58:37;;;;;;;13.93;4.70;;;3.70;92.30;;;;;;5074829;28;20032;-50
2024/01/08 10:01:03;;;;;;;14.02;5.20;;;3.70;92.40;;;;;;5109094;28;20048;-50
2024/01/08 10:03:28;;;;;;;21.00;5.53;;;3.80;92.40;;;;;;5107669;28;20062;-50
2024/01/08 10:05:54;;;;;;;12.13;5.40;;;3.70;92.40;;;;;;5108698;28;20095;-50
2024/01/08 10:08:20;;;;;;;16.80;5.25;;;3.80;92.40;;;;;;5108511;28;20057;-50
2024/01/08 10:10:46;;;;;;;29.45;5.93;;;3.80;92.40;;;;;;5108925;28;20027;-50
2024/01/08 10:13:12;;;;;;;16.15;5.50;;;3.80;92.30;;;;;;5108282;28;20552;-50
2024/01/08 10:15:37;;;;;;;19.65;6.22;;;3.80;92.30;;;;;;5109060;28;20016;-50
2024/01/08 10:18:08;;;;;;;16.10;5.47;;;3.70;92.20;;;;;;5108806;28;20088;-50
2024/01/08 10:20:33;;;;;;;29.02;6.13;;;3.80;92.20;;;;;;5107947;28;20024;-50
2024/01/08 10:23:06;;;;;;;44.33;6.53;;;3.70;92.30;;;;;;5106763;28;20119;-50
2024/01/08 10:25:32;;;;;;;20.88;5.80;;;3.70;92.30;;;;;;5108427;28;20050;-50
2024/01/08 10:27:58;;;;;;;18.13;5.72;;;3.80;92.30;;;;;;5108430;28;20028;-50
2024/01/08 10:30:24;;;;;;;35.53;7.82;;;3.80;92.30;;;;;;5107225;28;20024;-50
2024/01/08 10:32:50;;;;;;;42.15;7.15;;;3.80;92.30;;;;;;5107401;28;20036;-50
2024/01/08 10:35:29;;;;;;;24.00;7.05;;;3.80;92.40;;;;;;5110584;28;20032;-50
2024/01/08 10:37:55;;;;;;;29.20;6.75;;;3.80;92.30;;;;;;5104751;28;20037;-57
2024/01/08 10:40:20;;;;;;;40.33;7.30;;;3.80;92.30;;;;;;5107366;28;20032;-57
2024/01/08 10:42:46;;;;;;;30.05;7.28;;;3.80;92.30;;;;;;5108498;28;20037;-57
2024/01/08 10:45:12;;;;;;;43.30;7.40;;;3.80;92.30;;;;;;5107960;28;20028;-57
2024/01/08 10:47:38;;;;;;;22.30;6.32;;;3.80;92.30;;;;;;5107953;28;20032;-57
2024/01/08 10:50:05;;;;;;;20.52;6.43;;;3.80;92.30;;;;;;5099365;28;20028;-57
2024/01/08 10:52:32;;;;;;;24.67;7.03;;;3.80;92.20;;;;;;5106259;28;20524;-57
2024/01/08 10:55:00;;;;;;;22.02;5.78;;;3.80;92.20;;;;;;5095382;28;20043;-57
2024/01/08 10:57:28;;;;;;;27.77;6.32;;;3.80;92.30;;;;;;5108175;28;20031;-57
2024/01/08 10:59:53;;;;;;;23.88;5.75;;;3.80;92.30;;;;;;5107876;28;20036;-57
2024/01/08 11:02:19;;;;;;;28.05;5.82;;;3.80;92.20;;;;;;5106761;28;20464;-57
2024/01/08 11:04:45;;;;;;;15.52;5.80;;;3.80;92.20;;;;;;5106541;28;20032;-57
2024/01/08 11:07:11;;;;;;;21.45;6.18;;;3.70;92.10;;;;;;5106588;28;20035;-57
2024/01/08 11:09:37;;;;;;;19.58;6.05;;;3.80;92.10;;;;;;5106401;28;20039;-57
2024/01/08 11:12:03;;;;;;;51.72;8.73;;;3.70;92.10;;;;;;5107822;28;20495;-57
2024/01/08 11:14:30;;;;;;;19.90;5.90;;;3.70;92.10;;;;;;5107946;28;20024;-58
2024/01/08 11:16:55;;;;;;;37.88;6.45;;;3.70;92.10;;;;;;5107819;28;20031;-57
2024/01/08 11:19:21;;;;;;;28.95;7.03;;;3.70;92.00;;;;;;5107833;28;20115;-57
2024/01/08 11:21:50;;;;;;;30.13;7.53;;;3.70;92.10;;;;;;5107708;28;20126;-57
2024/01/08 11:24:15;;;;;;;26.73;7.13;;;3.70;92.10;;;;;;5107464;28;20032;-57
2024/01/08 11:26:44;;;;;;;34.20;6.97;;;3.70;92.10;;;;;;5106073;28;20031;-57
2024/01/08 11:29:10;;;;;;;33.80;7.13;;;3.70;92.10;;;;;;5107604;28;20028;-57
2024/01/08 11:32:09;;;;;;;33.83;6.53;;;3.70;92.00;;;;;;5107369;28;20024;-57
2024/01/08 11:34:53;;;;;;;34.97;6.97;;;3.70;92.00;;;;;;5107734;28;20051;-57
2024/01/08 11:37:28;;;;;;;27.25;7.10;;;3.70;92.10;;;;;;5107049;28;20029;-56
2024/01/08 11:39:54;;;;;;;37.28;6.50;;;3.70;92.00;;;;;;5103587;28;20036;-57
2024/01/08 11:42:21;;;;;;;30.27;6.85;;;3.70;92.00;;;;;;5106458;28;20031;-57
2024/01/08 11:44:46;;;;;;;32.22;7.15;;;3.70;91.90;;;;;;5107271;28;20032;-57
2024/01/08 11:47:12;;;;;;;26.27;6.80;;;3.70;92.00;;;;;;5104106;28;20027;-57
2024/01/08 11:49:37;;;;;;;31.23;7.15;;;3.70;92.00;;;;;;5102060;28;20028;-57
2024/01/08 11:52:04;;;;;;;39.00;7.03;;;3.70;92.00;;;;;;5100622;28;20030;-57
2024/01/08 11:54:30;;;;;;;35.08;8.73;;;3.80;92.10;;;;;;5086965;28;20028;-57
2024/01/08 11:56:55;;;;;;;30.73;6.97;;;3.70;92.10;;;;;;5087916;28;20052;-57
2024/01/08 11:59:35;;;;;;;41.60;8.02;;;3.70;92.10;;;;;;5106372;28;20035;-57
2024/01/08 12:02:27;;;;;;;42.55;8.02;;;3.70;92.00;;;;;;5090501;28;20448;-57
2024/01/08 12:04:59;;;;;;;53.70;8.88;;;3.70;92.10;;;;;;5098923;28;20079;-57
2024/01/08 12:07:28;;;;;;;43.90;8.40;;;3.70;92.00;;;;;;5104801;28;20032;-57
2024/01/08 12:09:54;;;;;;;28.05;7.53;;;3.70;92.00;;;;;;5106072;28;20032;-57
2024/01/08 12:12:20;;;;;;;27.25;7.35;;;3.70;91.90;;;;;;5104933;28;20103;-57
2024/01/08 12:14:46;;;;;;;31.85;6.82;;;3.70;91.90;;;;;;5105531;28;20032;-57
2024/01/08 12:17:13;;;;;;;33.88;7.30;;;3.70;91.90;;;;;;5105188;28;20017;-57
2024/01/08 12:19:41;;;;;;;25.65;7.05;;;3.70;91.90;;;;;;5105798;28;20028;-57
2024/01/08 12:22:08;;;;;;;18.67;6.90;;;3.70;91.90;;;;;;5115889;28;20460;-57
2024/01/08 12:24:34;;;;;;;19.05;7.40;;;3.70;91.80;;;;;;5091001;28;20032;-57
2024/01/08 12:27:03;;;;;;;32.85;6.63;;;3.70;91.80;;;;;;5103263;28;20059;-57
2024/01/08 12:29:29;;;;;;;24.17;5.93;;;3.70;91.80;;;;;;5103021;28;20422;-57
2024/01/08 12:31:58;;;;;;;33.72;6.60;;;3.70;91.70;;;;;;5103719;28;20027;-57
2024/01/08 12:34:30;;;;;;;23.55;7.50;;;3.70;91.80;;;;;;5104006;28;20058;-57
2024/01/08 12:36:57;;;;;;;30.73;7.35;;;3.70;91.80;;;;;;5104047;28;20479;-57
2024/01/08 12:39:28;;;;;;;27.83;6.72;;;3.70;91.70;;;;;;5103439;28;20036;-56
2024/01/08 12:41:55;;;;;;;30.60;6.82;;;3.70;91.70;;;;;;5105269;28;20035;-57
2024/01/08 12:44:28;;;;;;;21.52;6.30;;;3.60;91.70;;;;;;5105715;28;20029;-57